Time;durP1;ratioP1;P1;durP2;ratioP2;P2;SDS_P1;SDS_P2;PMS_P1;PMS_P2;Temp;Humidity;BMP_temperature;BMP_pressure;BME280_temperature;BME280_humidity;BME280_pressure;Samples;Min_cycle;Max_cycle;Signal;HPM_P1;HPM_P2
2022/08/03 00:00:13;;;;;;;2.95;1.50;;;;;;;34.66;26.57;100844.97;4892776;29;20044;-77
2022/08/03 00:02:42;;;;;;;2.15;1.40;;;;;;;34.73;26.44;100844.44;4883758;29;20108;-76
2022/08/03 00:05:10;;;;;;;3.67;1.55;;;;;;;34.75;26.22;100837.13;4895519;29;20048;-75
2022/08/03 00:07:39;;;;;;;3.95;1.08;;;;;;;34.68;26.34;100833.13;4894554;29;20049;-75
2022/08/03 00:10:09;;;;;;;2.13;1.45;;;;;;;34.69;27.19;100826.81;4891871;29;20044;-77
2022/08/03 00:12:37;;;;;;;4.35;1.67;;;;;;;34.80;26.50;100824.22;4895441;29;20097;-78
2022/08/03 00:15:07;;;;;;;9.48;1.67;;;;;;;34.88;26.18;100823.66;4892201;29;20049;-77
2022/08/03 00:17:37;;;;;;;3.83;1.65;;;;;;;34.83;26.00;100820.44;4892352;29;20056;-77
2022/08/03 00:20:06;;;;;;;6.65;1.45;;;;;;;34.77;27.03;100813.69;4894919;29;20487;-77
2022/08/03 00:22:36;;;;;;;2.92;1.25;;;;;;;34.82;26.79;100805.31;4897253;29;20059;-76
2022/08/03 00:25:05;;;;;;;4.80;1.80;;;;;;;34.95;26.18;100813.31;4897582;29;20052;-77
2022/08/03 00:27:35;;;;;;;2.38;1.40;;;;;;;35.02;26.29;100809.22;4906149;29;20049;-76
2022/08/03 00:30:03;;;;;;;2.65;1.33;;;;;;;35.06;26.31;100799.13;4895448;29;20078;-78
2022/08/03 00:32:32;;;;;;;5.25;2.03;;;;;;;34.94;25.64;100803.56;4892488;29;20050;-76
2022/08/03 00:35:02;;;;;;;3.83;1.70;;;;;;;34.77;26.44;100807.44;4891806;29;20391;-76
2022/08/03 00:37:31;;;;;;;2.15;1.50;;;;;;;34.75;26.87;100804.88;4898685;29;20060;-77
2022/08/03 00:39:59;;;;;;;5.20;1.52;;;;;;;34.82;27.11;100800.78;4893067;29;20067;-76
2022/08/03 00:42:28;;;;;;;2.35;1.40;;;;;;;34.89;26.78;100803.00;4892477;29;20554;-77
2022/08/03 00:44:57;;;;;;;1.40;1.20;;;;;;;34.88;26.59;100794.09;4894186;29;20075;-76
2022/08/03 00:47:25;;;;;;;2.53;1.42;;;;;;;34.83;26.31;100797.09;4892609;29;20530;-78
2022/08/03 00:49:54;;;;;;;4.88;1.95;;;;;;;34.85;26.70;100791.63;4892842;29;20052;-79
2022/08/03 00:52:24;;;;;;;3.05;1.40;;;;;;;34.88;26.42;100793.25;4893788;29;20076;-78
2022/08/03 00:54:52;;;;;;;4.13;1.27;;;;;;;34.89;26.68;100789.56;4894297;29;20108;-78
2022/08/03 00:57:21;;;;;;;5.60;1.40;;;;;;;34.92;26.91;100794.75;4894351;29;20060;-78
2022/08/03 00:59:49;;;;;;;2.72;1.42;;;;;;;34.89;26.55;100790.44;4894165;29;20127;-76
2022/08/03 01:02:18;;;;;;;4.88;1.58;;;;;;;34.83;26.31;100780.97;4889229;29;20104;-76
2022/08/03 01:04:46;;;;;;;6.45;1.60;;;;;;;34.79;26.27;100784.84;4879065;29;20100;-79
2022/08/03 01:07:30;;;;;;;4.97;1.35;;;;;;;34.75;26.58;100785.19;4879488;29;20124;-84
2022/08/03 01:10:07;;;;;;;1.67;1.45;;;;;;;34.71;26.88;100786.41;4885955;29;20427;-78
2022/08/03 01:12:42;;;;;;;2.38;1.58;;;;;;;34.68;27.49;100790.13;4889624;29;20044;-76
2022/08/03 01:15:20;;;;;;;2.40;1.58;;;;;;;34.57;27.04;100779.28;4899058;29;20052;-80
2022/08/03 01:17:54;;;;;;;3.60;1.40;;;;;;;34.55;26.65;100778.53;4890151;29;20064;-79
2022/08/03 01:20:24;;;;;;;2.67;1.30;;;;;;;34.53;27.08;100777.78;4892607;29;20663;-79
2022/08/03 01:23:17;;;;;;;3.17;1.30;;;;;;;34.43;26.92;100777.59;4897096;29;20052;-79
2022/08/03 01:26:04;;;;;;;7.25;1.85;;;;;;;34.21;26.85;100768.31;4882718;29;20056;-78
2022/08/03 01:28:58;;;;;;;3.90;1.40;;;;;;;34.03;28.21;100776.78;4886379;29;20067;-77
2022/08/03 01:31:34;;;;;;;3.00;1.33;;;;;;;33.92;28.10;100770.28;4890428;29;20699;-77
2022/08/03 01:34:07;;;;;;;5.75;1.48;;;;;;;33.80;28.29;100760.41;4884574;29;20049;-77
2022/08/03 01:36:40;;;;;;;3.50;1.30;;;;;;;33.79;30.12;100761.38;4897313;29;20154;-79
2022/08/03 01:39:10;;;;;;;3.30;1.67;;;;;;;33.80;29.26;100763.09;4886831;29;20057;-79
2022/08/03 01:41:45;;;;;;;4.72;1.65;;;;;;;33.81;28.28;100759.44;4887120;29;20056;-76
2022/08/03 01:44:15;;;;;;;1.80;1.15;;;;;;;33.85;28.47;100760.09;4887732;29;20060;-76
2022/08/03 01:46:50;;;;;;;4.65;1.73;;;;;;;33.83;28.33;100756.66;4881774;29;20124;-78
2022/08/03 01:49:20;;;;;;;5.75;1.50;;;;;;;33.82;28.12;100750.44;4879997;29;20064;-78
2022/08/03 01:51:50;;;;;;;1.67;1.27;;;;;;;33.78;28.33;100760.50;4883479;29;20044;-77
2022/08/03 01:54:19;;;;;;;2.63;1.50;;;;;;;33.78;28.46;100759.66;4885790;29;20063;-78
2022/08/03 01:56:49;;;;;;;2.17;1.20;;;;;;;33.76;29.05;100758.88;4891015;29;20048;-77
2022/08/03 01:59:20;;;;;;;6.10;1.85;;;;;;;33.76;29.25;100750.84;4890529;29;20819;-79
2022/08/03 02:01:51;;;;;;;8.05;1.25;;;;;;;33.76;31.28;100754.38;4886063;29;20044;-77
2022/08/03 02:04:20;;;;;;;3.80;1.63;;;;;;;33.68;32.23;100761.25;4883886;29;20064;-78
2022/08/03 02:06:50;;;;;;;3.72;1.40;;;;;;;33.64;32.53;100754.38;4885555;29;20044;-77
2022/08/03 02:09:22;;;;;;;4.93;1.52;;;;;;;33.57;33.05;100749.41;4888334;29;20072;-77
2022/08/03 02:11:53;;;;;;;1.70;1.15;;;;;;;33.48;30.75;100750.00;4893961;29;20052;-78
2022/08/03 02:14:22;;;;;;;5.07;1.45;;;;;;;33.45;30.68;100752.03;4887782;29;20104;-79
2022/08/03 02:16:53;;;;;;;4.03;1.40;;;;;;;33.42;31.03;100747.72;4889611;29;20117;-79
2022/08/03 02:19:23;;;;;;;2.95;1.60;;;;;;;33.34;31.11;100745.53;4889582;29;20064;-78
2022/08/03 02:21:54;;;;;;;1.98;1.30;;;;;;;33.31;31.26;100747.59;4883944;29;20049;-78
2022/08/03 02:24:22;;;;;;;3.13;1.20;;;;;;;33.26;32.69;100744.31;4889906;29;20059;-77
2022/08/03 02:26:54;;;;;;;2.97;1.40;;;;;;;33.16;30.94;100747.59;4879973;29;20471;-77
2022/08/03 02:29:25;;;;;;;4.07;1.35;;;;;;;33.02;31.44;100744.94;4888594;29;20055;-78
2022/08/03 02:31:58;;;;;;;;;;;;;;;32.97;31.71;100741.72;4891641;29;20053;-78
2022/08/03 02:34:30;;;;;;;4.40;1.40;;;;;;;32.92;32.70;100746.50;4883439;29;19927;-82
2022/08/03 02:37:01;;;;;;;2.00;1.27;;;;;;;32.87;32.85;100743.25;4881467;29;20514;-79
2022/08/03 02:39:33;;;;;;;3.53;1.33;;;;;;;32.79;33.74;100738.38;4895250;29;20672;-79
2022/08/03 02:42:04;;;;;;;3.58;1.35;;;;;;;32.71;35.54;100746.94;4892956;29;20520;-76
2022/08/03 02:44:34;;;;;;;3.15;1.48;;;;;;;32.64;34.97;100744.72;4893831;29;20056;-79
2022/08/03 02:47:07;;;;;;;3.50;1.40;;;;;;;32.54;34.58;100736.41;4888102;29;20044;-82
2022/08/03 02:49:37;;;;;;;3.38;1.33;;;;;;;32.44;34.03;100737.91;4892611;29;20052;-77
2022/08/03 02:52:09;;;;;;;1.50;1.40;;;;;;;32.32;34.01;100737.72;4886613;29;20052;-77
2022/08/03 02:54:40;;;;;;;5.43;1.42;;;;;;;32.21;34.78;100726.81;4896029;29;20053;-77
2022/08/03 02:57:10;;;;;;;2.73;1.23;;;;;;;32.12;35.68;100730.06;4885547;29;20128;-75
2022/08/03 02:59:41;;;;;;;1.65;1.30;;;;;;;32.01;34.56;100729.84;4889476;29;20048;-77
2022/08/03 03:02:13;;;;;;;5.72;1.65;;;;;;;31.90;34.94;100728.63;4898236;29;20053;-75
2022/08/03 03:04:42;;;;;;;2.80;1.48;;;;;;;31.80;33.79;100727.47;4891402;29;20644;-76
2022/08/03 03:07:13;;;;;;;4.30;1.45;;;;;;;31.69;34.65;100729.94;4893280;29;20116;-76
2022/08/03 03:09:43;;;;;;;1.63;1.27;;;;;;;31.57;34.36;100725.31;4888556;29;20593;-76
2022/08/03 03:12:13;;;;;;;3.58;1.50;;;;;;;31.44;35.16;100725.16;4893897;29;20056;-76
2022/08/03 03:14:42;;;;;;;2.15;1.45;;;;;;;31.33;35.62;100728.41;4899451;29;20112;-78
2022/08/03 03:17:12;;;;;;;5.32;1.60;;;;;;;31.22;35.92;100734.41;4877415;29;20061;-78
2022/08/03 03:19:42;;;;;;;3.40;1.55;;;;;;;31.12;35.38;100732.34;4904300;29;20044;-77
2022/08/03 03:22:13;;;;;;;2.10;1.35;;;;;;;30.98;35.29;100728.63;4888885;29;20147;-76
2022/08/03 03:24:43;;;;;;;1.97;1.30;;;;;;;30.88;36.93;100727.44;4892248;29;20076;-77
2022/08/03 03:27:12;;;;;;;2.92;1.60;;;;;;;30.76;35.99;100728.06;4885391;29;20312;-78
2022/08/03 03:29:41;;;;;;;2.45;1.48;;;;;;;30.63;35.95;100731.44;4893688;29;20044;-77
2022/08/03 03:32:11;;;;;;;4.57;1.73;;;;;;;30.54;35.51;100736.41;4893396;29;20530;-78
2022/08/03 03:34:40;;;;;;;5.05;1.58;;;;;;;30.41;35.71;100736.19;4888940;29;20056;-76
2022/08/03 03:37:08;;;;;;;4.90;1.50;;;;;;;30.30;35.81;100735.91;4886962;29;20507;-77
2022/08/03 03:39:37;;;;;;;5.20;1.73;;;;;;;30.18;36.30;100738.25;4892990;29;20056;-77
2022/08/03 03:42:06;;;;;;;2.72;1.48;;;;;;;30.07;36.49;100741.47;4891282;29;20056;-78
2022/08/03 03:44:35;;;;;;;6.78;1.60;;;;;;;29.96;36.88;100734.97;4892136;29;20534;-78
2022/08/03 03:47:04;;;;;;;2.72;1.70;;;;;;;29.88;37.15;100745.19;4886086;29;20103;-78
2022/08/03 03:49:35;;;;;;;5.35;1.90;;;;;;;29.78;37.25;100751.00;4898508;29;20096;-78
2022/08/03 03:52:03;;;;;;;3.42;1.80;;;;;;;29.70;37.44;100752.31;4885561;29;20053;-78
2022/08/03 03:54:42;;;;;;;3.28;1.60;;;;;;;29.60;37.75;100751.91;4887983;29;20575;-78
2022/08/03 03:57:11;;;;;;;3.25;1.48;;;;;;;29.53;38.28;100763.81;4886346;29;20593;-78
2022/08/03 03:59:40;;;;;;;2.90;1.70;;;;;;;29.44;38.13;100757.13;4886920;29;20052;-79
2022/08/03 04:02:09;;;;;;;6.53;1.70;;;;;;;29.37;38.96;100758.38;4879862;29;20048;-79
2022/08/03 04:13:09;;;;;;;3.63;1.70;;;;;;;29.03;38.14;100768.81;4888184;29;20059;-77
2022/08/03 04:15:40;;;;;;;8.77;1.75;;;;;;;28.95;38.79;100781.59;4886230;29;20045;-77
2022/08/03 04:18:13;;;;;;;4.03;1.60;;;;;;;28.88;39.50;100779.31;4885767;29;20408;-79
2022/08/03 04:20:48;;;;;;;2.45;2.15;;;;;;;28.82;39.75;100784.00;4886910;29;20499;-78
2022/08/03 04:23:19;;;;;;;3.05;1.67;;;;;;;28.76;39.59;100792.25;4891716;29;20109;-79
2022/08/03 04:25:52;;;;;;;2.50;1.80;;;;;;;28.69;39.55;100790.81;4891804;29;20080;-77
2022/08/03 04:28:22;;;;;;;4.95;1.70;;;;;;;28.62;40.00;100794.69;4889688;29;20056;-76
2022/08/03 04:30:53;;;;;;;3.28;1.83;;;;;;;28.55;40.19;100798.56;4893414;29;20053;-77
2022/08/03 04:33:23;;;;;;;5.40;1.97;;;;;;;28.47;40.21;100801.53;4890336;29;20085;-79
2022/08/03 04:35:58;;;;;;;2.45;1.60;;;;;;;28.40;40.48;100798.28;4891980;29;20135;-79
2022/08/03 04:38:30;;;;;;;3.67;1.90;;;;;;;28.34;40.45;100800.34;4885150;29;20144;-77
2022/08/03 04:41:00;;;;;;;4.32;1.70;;;;;;;28.27;41.86;100801.56;4895703;29;20161;-78
2022/08/03 04:43:42;;;;;;;6.80;1.83;;;;;;;28.20;43.30;100807.13;4889643;29;20142;-79
2022/08/03 04:46:10;;;;;;;;;;;;;;;28.12;43.58;100803.06;4895601;29;20055;-78
2022/08/03 04:48:40;;;;;;;2.80;1.63;;;;;;;28.05;44.13;100805.13;4891503;29;19924;-78
2022/08/03 04:51:11;;;;;;;6.22;1.60;;;;;;;27.97;43.01;100807.25;4894028;29;20311;-79
2022/08/03 04:53:40;;;;;;;3.07;1.70;;;;;;;27.91;44.32;100812.81;4886494;29;20051;-77
2022/08/03 04:56:09;;;;;;;2.92;1.45;;;;;;;27.83;43.41;100814.88;4889678;29;20315;-77
2022/08/03 04:58:38;;;;;;;4.28;1.67;;;;;;;27.74;43.73;100819.69;4886779;29;20546;-78
2022/08/03 05:01:06;;;;;;;2.58;1.58;;;;;;;27.67;43.99;100817.31;4890815;29;20048;-78
2022/08/03 05:03:35;;;;;;;5.93;1.75;;;;;;;27.56;43.63;100807.13;4887003;29;20048;-80
2022/08/03 05:06:04;;;;;;;3.92;1.73;;;;;;;27.47;43.82;100812.81;4886718;29;20052;-81
2022/08/03 05:08:34;;;;;;;3.25;1.70;;;;;;;27.39;43.69;100821.06;4892383;29;20048;-78
2022/08/03 05:11:02;;;;;;;2.85;1.58;;;;;;;27.32;44.20;100819.59;4895179;29;20055;-79
2022/08/03 05:13:31;;;;;;;6.50;1.75;;;;;;;27.26;44.32;100819.81;4890069;29;20045;-79
2022/08/03 05:15:59;;;;;;;3.00;1.83;;;;;;;27.20;44.18;100820.06;4893960;29;20065;-79
2022/08/03 05:18:28;;;;;;;1.80;1.42;;;;;;;27.13;44.77;100819.41;4894507;29;20112;-81
2022/08/03 05:20:56;;;;;;;4.40;2.00;;;;;;;27.07;44.86;100824.94;4892843;29;20053;-80
2022/08/03 05:23:25;;;;;;;7.88;2.10;;;;;;;27.00;44.84;100826.13;4897781;29;20404;-80
2022/08/03 05:25:55;;;;;;;5.32;1.52;;;;;;;26.93;44.97;100825.47;4882712;29;20057;-77
2022/08/03 05:28:31;;;;;;;3.55;1.75;;;;;;;26.85;44.88;100831.09;4880470;29;20055;-77
2022/08/03 05:31:06;;;;;;;3.85;1.70;;;;;;;26.78;44.17;100821.63;4895981;29;20053;-79
2022/08/03 05:33:34;;;;;;;4.78;1.92;;;;;;;26.69;44.11;100830.78;4895919;29;20053;-78
2022/08/03 05:36:03;;;;;;;6.32;2.17;;;;;;;26.61;44.45;100826.66;4898088;29;20107;-77
2022/08/03 05:38:32;;;;;;;3.20;1.90;;;;;;;26.51;44.59;100824.31;4892350;29;20514;-77
2022/08/03 05:41:02;;;;;;;4.50;1.48;;;;;;;26.43;45.18;100823.69;4881501;29;20123;-75
2022/08/03 05:43:31;;;;;;;2.95;1.52;;;;;;;26.38;45.37;100828.31;4897852;28;20577;-79
2022/08/03 05:46:00;;;;;;;4.90;2.00;;;;;;;26.30;44.99;100822.41;4897283;29;20044;-79
2022/08/03 05:48:29;;;;;;;3.58;1.73;;;;;;;26.23;44.21;100826.22;4891574;29;20064;-79
2022/08/03 05:50:57;;;;;;;4.05;1.95;;;;;;;26.15;44.79;100822.94;4889800;29;20052;-79
2022/08/03 05:53:26;;;;;;;4.10;1.80;;;;;;;26.07;44.86;100820.56;4889155;29;20045;-79
2022/08/03 05:55:56;;;;;;;3.97;1.60;;;;;;;26.00;45.75;100819.91;4895931;29;20045;-79
2022/08/03 05:58:26;;;;;;;5.28;1.70;;;;;;;25.92;46.47;100821.94;4886889;29;20117;-80
2022/08/03 06:00:55;;;;;;;2.50;1.80;;;;;;;25.84;46.29;100821.28;4889691;29;20415;-79
2022/08/03 06:03:24;;;;;;;4.00;1.83;;;;;;;25.77;46.34;100823.28;4890895;29;20543;-79
2022/08/03 06:05:54;;;;;;;3.97;1.90;;;;;;;25.70;46.83;100827.91;4891096;29;20419;-79
2022/08/03 06:08:23;;;;;;;3.22;1.48;;;;;;;25.64;46.41;100828.09;4886800;29;20632;-78
2022/08/03 06:10:51;;;;;;;3.90;1.80;;;;;;;25.56;47.43;100830.09;4890685;29;20072;-79
2022/08/03 06:13:20;;;;;;;2.58;1.85;;;;;;;25.47;47.27;100818.03;4891560;29;20049;-79
2022/08/03 06:15:50;;;;;;;4.22;1.75;;;;;;;25.41;47.53;100822.66;4893864;29;20045;-78
2022/08/03 06:18:19;;;;;;;4.32;1.83;;;;;;;25.33;47.53;100827.31;4894648;29;20057;-77
2022/08/03 06:20:47;;;;;;;4.63;1.70;;;;;;;25.24;47.54;100826.69;4891991;29;20052;-79
2022/08/03 06:23:16;;;;;;;3.83;1.70;;;;;;;25.13;47.29;100815.53;4890887;29;20053;-79
2022/08/03 06:25:45;;;;;;;4.90;1.70;;;;;;;25.11;47.95;100817.34;4897542;29;20569;-80
2022/08/03 06:28:14;;;;;;;3.90;1.50;;;;;;;25.07;48.08;100815.69;4891097;29;20116;-79
2022/08/03 06:30:43;;;;;;;4.47;1.50;;;;;;;25.03;48.31;100812.25;4884764;29;20075;-79
2022/08/03 06:33:13;;;;;;;3.40;1.88;;;;;;;25.01;48.09;100815.88;4894238;29;20075;-79
2022/08/03 06:35:41;;;;;;;4.25;1.70;;;;;;;24.96;48.41;100817.78;4904549;29;20048;-79
2022/08/03 06:38:10;;;;;;;3.97;1.98;;;;;;;24.89;48.43;100830.34;4898517;29;20503;-79
2022/08/03 06:40:39;;;;;;;4.13;1.75;;;;;;;24.82;48.43;100820.84;4890490;29;20056;-78
2022/08/03 06:43:08;;;;;;;4.43;1.90;;;;;;;24.75;47.78;100836.03;4892016;29;20636;-79
2022/08/03 06:45:37;;;;;;;3.88;1.70;;;;;;;24.69;48.50;100828.25;4891154;29;20049;-79
2022/08/03 06:48:07;;;;;;;2.78;1.65;;;;;;;24.63;48.45;100825.78;4892871;29;20771;-80
2022/08/03 06:50:43;;;;;;;7.30;2.15;;;;;;;24.60;48.99;100829.38;4885505;29;20073;-79
2022/08/03 06:53:11;;;;;;;4.68;1.90;;;;;;;24.55;48.76;100825.97;4895406;29;20040;-78
2022/08/03 06:55:40;;;;;;;4.65;1.90;;;;;;;24.50;48.97;100840.25;4896564;29;20052;-80
2022/08/03 06:58:08;;;;;;;5.53;2.03;;;;;;;24.44;49.07;100835.94;4895654;29;20056;-79
2022/08/03 07:00:37;;;;;;;6.28;1.73;;;;;;;24.36;49.91;100841.44;4900487;29;20557;-79
2022/08/03 07:03:05;;;;;;;5.97;1.88;;;;;;;24.30;50.10;100844.25;4898441;29;20049;-78
2022/08/03 07:05:34;;;;;;;7.28;1.80;;;;;;;24.23;50.58;100837.38;4901219;29;20538;-79
2022/08/03 07:08:04;;;;;;;4.32;1.58;;;;;;;24.15;49.82;100844.66;4897782;29;20072;-78
2022/08/03 07:10:33;;;;;;;3.53;1.65;;;;;;;24.09;50.12;100850.09;4893862;29;20053;-79
2022/08/03 07:13:01;;;;;;;3.67;1.55;;;;;;;24.02;50.47;100847.59;4893696;29;20111;-80
2022/08/03 07:15:30;;;;;;;3.10;1.65;;;;;;;23.97;50.75;100852.13;4892769;29;20044;-78
2022/08/03 07:17:59;;;;;;;4.93;1.65;;;;;;;23.91;51.02;100857.56;4897858;29;20697;-79
2022/08/03 07:20:27;;;;;;;3.70;1.83;;;;;;;23.86;51.33;100854.16;4901129;29;20044;-80
2022/08/03 07:22:56;;;;;;;7.55;2.05;;;;;;;23.81;50.77;100856.91;4896656;29;20479;-79
2022/08/03 07:25:26;;;;;;;4.95;2.00;;;;;;;23.75;51.06;100861.47;4898429;29;20049;-79
2022/08/03 07:27:54;;;;;;;3.58;1.75;;;;;;;23.69;51.25;100861.59;4889471;29;20045;-78
2022/08/03 07:30:23;;;;;;;6.43;2.00;;;;;;;23.62;51.30;100860.88;4891125;29;20122;-78
2022/08/03 07:32:51;;;;;;;4.70;1.88;;;;;;;23.55;51.41;100865.41;4883100;29;20483;-78
2022/08/03 07:35:21;;;;;;;5.57;1.45;;;;;;;23.48;52.28;100857.66;4889873;29;20503;-78
2022/08/03 07:37:50;;;;;;;3.92;1.83;;;;;;;23.40;52.17;100869.25;4894142;29;20062;-79
2022/08/03 07:40:18;;;;;;;7.97;1.85;;;;;;;23.35;52.52;100867.63;4898625;29;20052;-79
2022/08/03 07:42:49;;;;;;;5.45;1.88;;;;;;;23.26;52.86;100868.69;4900295;29;20063;-79
2022/08/03 07:45:17;;;;;;;6.18;1.83;;;;;;;23.19;53.12;100857.38;4892010;29;20053;-79
2022/08/03 07:47:46;;;;;;;6.07;1.80;;;;;;;23.13;53.54;100856.66;4889349;29;20479;-80
2022/08/03 07:50:14;;;;;;;4.68;1.80;;;;;;;23.07;54.07;100864.72;4885305;29;20600;-79
2022/08/03 07:52:49;;;;;;;4.95;2.00;;;;;;;23.01;53.71;100868.31;4891309;29;20498;-80
2022/08/03 07:55:18;;;;;;;4.18;1.90;;;;;;;22.94;54.38;100858.75;4890670;29;20072;-79
2022/08/03 07:57:49;;;;;;;4.22;1.73;;;;;;;22.86;54.20;100860.66;4891210;29;20060;-79
2022/08/03 08:00:19;;;;;;;2.75;1.70;;;;;;;22.80;54.07;100859.03;4897757;29;20048;-79
2022/08/03 08:02:48;;;;;;;3.30;1.60;;;;;;;22.77;54.73;100859.13;4897923;29;20044;-79
2022/08/03 08:05:17;;;;;;;3.20;1.90;;;;;;;22.74;55.38;100860.00;4892968;29;20567;-80
2022/08/03 08:07:45;;;;;;;9.65;2.05;;;;;;;22.70;55.28;100863.63;4899363;29;20151;-79
2022/08/03 08:10:13;;;;;;;4.85;1.90;;;;;;;22.65;54.77;100864.59;4898530;29;20064;-80
2022/08/03 08:12:43;;;;;;;7.38;2.05;;;;;;;22.57;56.61;100862.13;4892944;29;20052;-78
2022/08/03 08:15:13;;;;;;;5.45;1.90;;;;;;;22.36;58.22;100850.19;4900374;29;20044;-79
2022/08/03 08:17:45;;;;;;;3.60;2.20;;;;;;;22.24;59.50;100859.19;4903055;29;20148;-79
2022/08/03 08:20:18;;;;;;;3.40;1.80;;;;;;;22.09;59.54;100864.69;4898513;29;20056;-80
2022/08/03 08:22:47;;;;;;;3.83;1.85;;;;;;;21.98;59.62;100867.47;4899957;29;20509;-79
2022/08/03 08:25:15;;;;;;;4.72;1.80;;;;;;;21.87;60.17;100859.72;4892062;29;20051;-79
2022/08/03 08:27:45;;;;;;;5.00;2.03;;;;;;;21.78;60.12;100854.59;4894786;29;20097;-79
2022/08/03 08:30:19;;;;;;;7.28;2.05;;;;;;;21.71;60.34;100861.72;4888768;29;20511;-80
2022/08/03 08:32:47;;;;;;;7.07;2.00;;;;;;;21.68;61.52;100859.16;4893624;29;20430;-80
2022/08/03 08:35:16;;;;;;;3.13;1.70;;;;;;;21.62;62.27;100853.97;4892007;29;20037;-79
2022/08/03 08:37:45;;;;;;;4.22;1.90;;;;;;;21.61;62.02;100862.75;4892331;29;20525;-79
2022/08/03 08:40:14;;;;;;;4.40;1.88;;;;;;;21.51;62.21;100840.97;4900999;29;20059;-79
2022/08/03 08:42:44;;;;;;;5.95;1.98;;;;;;;21.58;61.95;100857.56;4883236;29;20526;-80
2022/08/03 08:45:14;;;;;;;7.03;2.13;;;;;;;21.59;62.05;100853.16;4891868;29;20061;-79
2022/08/03 08:47:47;;;;;;;5.80;1.98;;;;;;;21.59;62.35;100847.88;4890658;29;20051;-79
2022/08/03 08:50:20;;;;;;;4.90;2.13;;;;;;;21.58;62.32;100856.66;4887771;29;20133;-78
2022/08/03 08:52:50;;;;;;;2.55;1.63;;;;;;;21.53;62.62;100854.09;4886438;29;20064;-79
2022/08/03 08:55:23;;;;;;;5.30;1.70;;;;;;;21.46;62.55;100861.22;4891129;29;20495;-79
2022/08/03 08:57:56;;;;;;;4.28;1.83;;;;;;;21.39;63.03;100866.53;4882864;29;20514;-79
2022/08/03 09:00:24;;;;;;;6.10;2.40;;;;;;;21.28;63.19;100870.22;4888628;29;20053;-79
2022/08/03 09:02:55;;;;;;;5.60;2.38;;;;;;;21.19;63.90;100874.69;4886480;29;20049;-78
2022/08/03 09:05:23;;;;;;;5.43;2.00;;;;;;;21.16;63.50;100875.59;4888760;29;20052;-78
2022/08/03 09:07:52;;;;;;;3.75;2.05;;;;;;;21.13;62.76;100871.25;4889850;29;20052;-78
2022/08/03 09:10:20;;;;;;;6.25;2.08;;;;;;;21.09;63.40;100869.53;4895775;29;20082;-78
2022/08/03 09:12:50;;;;;;;3.33;1.75;;;;;;;21.08;63.81;100867.81;4891310;29;20091;-79
2022/08/03 09:15:21;;;;;;;5.53;2.38;;;;;;;21.07;63.47;100875.72;4894222;29;20068;-79
2022/08/03 09:17:50;;;;;;;3.85;2.20;;;;;;;21.02;63.48;100867.88;4893551;29;20115;-79
2022/08/03 09:20:21;;;;;;;3.67;2.25;;;;;;;20.98;64.13;100881.97;4893888;29;20091;-78
2022/08/03 09:23:00;;;;;;;3.95;1.95;;;;;;;20.94;64.51;100882.91;4894995;29;20056;-78
2022/08/03 09:25:34;;;;;;;5.20;2.03;;;;;;;20.88;64.24;100881.19;4887975;29;21032;-79
2022/08/03 09:28:10;;;;;;;5.90;2.28;;;;;;;20.85;64.81;100875.97;4886530;29;20104;-78
2022/08/03 09:30:41;;;;;;;4.80;2.10;;;;;;;20.82;64.38;100876.03;4887698;29;20511;-79
2022/08/03 09:33:11;;;;;;;4.45;2.25;;;;;;;20.79;64.40;100877.78;4883776;29;20148;-78
2022/08/03 09:35:45;;;;;;;5.05;2.22;;;;;;;20.74;64.07;100866.47;4896191;29;20499;-79
2022/08/03 09:38:15;;;;;;;4.07;2.03;;;;;;;20.70;64.52;100876.13;4894314;29;20535;-77
2022/08/03 09:40:44;;;;;;;5.55;2.00;;;;;;;20.65;64.41;100867.44;4883153;29;20044;-78
2022/08/03 09:43:13;;;;;;;6.82;2.17;;;;;;;20.51;65.32;100860.50;4888509;29;20060;-80
2022/08/03 09:45:43;;;;;;;4.30;2.00;;;;;;;20.51;65.65;100875.41;4892344;29;20049;-78
2022/08/03 09:48:29;;;;;;;11.15;2.35;;;;;;;20.47;65.59;100873.69;4886780;29;20049;-78
2022/08/03 09:51:02;;;;;;;5.05;2.22;;;;;;;20.45;65.64;100873.69;4895938;29;20646;-79
2022/08/03 09:53:30;;;;;;;4.72;2.35;;;;;;;20.45;65.73;100870.22;4899710;29;20159;-77
2022/08/03 09:56:00;;;;;;;5.60;2.10;;;;;;;20.44;65.18;100873.72;4894876;29;20136;-79
2022/08/03 09:58:30;;;;;;;8.45;2.38;;;;;;;20.40;64.72;100872.00;4895849;29;20053;-79
2022/08/03 10:01:02;;;;;;;5.80;2.33;;;;;;;20.36;65.18;100879.03;4891852;29;20055;-79
2022/08/03 10:03:32;;;;;;;4.28;1.92;;;;;;;20.33;65.88;100881.72;4888626;29;20064;-78
2022/08/03 10:06:18;;;;;;;7.55;2.22;;;;;;;20.27;65.59;100882.66;4892649;29;20056;-78
2022/08/03 10:08:46;;;;;;;9.38;2.50;;;;;;;20.19;66.30;100880.97;4891932;29;20052;-80
2022/08/03 10:11:31;;;;;;;4.93;1.98;;;;;;;20.14;66.43;100881.00;4893162;29;20060;-77
2022/08/03 10:13:59;;;;;;;6.15;2.40;;;;;;;20.10;66.70;100884.53;4891141;29;20052;-77
2022/08/03 10:16:29;;;;;;;9.63;2.20;;;;;;;20.07;67.02;100884.56;4891600;29;20059;-78
2022/08/03 10:18:58;;;;;;;7.78;2.58;;;;;;;20.03;66.65;100882.81;4897436;29;20064;-78
2022/08/03 10:21:34;;;;;;;10.80;2.47;;;;;;;19.99;67.54;100883.72;4888043;29;20100;-78
2022/08/03 10:24:05;;;;;;;3.53;2.28;;;;;;;19.95;67.96;100888.16;4894116;29;20143;-78
2022/08/03 10:26:35;;;;;;;3.53;2.30;;;;;;;19.92;68.28;100889.91;4886113;29;20570;-78
2022/08/03 10:29:07;;;;;;;5.65;2.60;;;;;;;19.87;68.48;100890.81;4882509;29;20056;-78
2022/08/03 10:31:40;;;;;;;5.57;2.10;;;;;;;19.82;68.26;100895.22;4888263;29;20053;-77
2022/08/03 10:34:16;;;;;;;6.22;2.60;;;;;;;19.78;68.29;100900.50;4891052;29;20044;-78
2022/08/03 10:36:48;;;;;;;5.43;2.88;;;;;;;19.63;69.08;100885.66;4888567;29;20053;-78
2022/08/03 10:39:21;;;;;;;9.85;2.35;;;;;;;19.67;68.89;100897.91;4892953;29;20056;-78
2022/08/03 10:41:51;;;;;;;5.28;2.25;;;;;;;19.61;69.80;100895.34;4894647;29;20506;-78
2022/08/03 10:44:21;;;;;;;9.18;2.50;;;;;;;19.54;70.44;100896.22;4886722;29;20060;-80
2022/08/03 10:46:50;;;;;;;6.10;2.13;;;;;;;19.44;70.12;100892.78;4892717;29;20052;-79
2022/08/03 10:49:20;;;;;;;4.20;2.17;;;;;;;19.40;70.86;100897.19;4895170;29;20439;-79
2022/08/03 10:51:50;;;;;;;6.80;2.72;;;;;;;19.31;72.08;100864.84;4893104;29;20383;-78
2022/08/03 10:57:44;;;;;;;5.18;2.30;;;;;;;19.18;72.92;100877.16;4864530;29;20740;-79
2022/08/03 11:00:14;;;;;;;4.78;2.30;;;;;;;19.14;72.90;100872.81;4886688;29;20069;-78
2022/08/03 11:03:15;;;;;;;6.90;2.25;;;;;;;19.11;72.86;100878.94;4895316;29;20384;-78
2022/08/03 11:05:44;;;;;;;5.07;2.38;;;;;;;18.99;72.41;100858.88;4832382;29;20053;-79
2022/08/03 11:08:26;;;;;;;5.60;2.10;;;;;;;18.98;72.80;100882.47;4838737;29;20050;-78
2022/08/03 11:10:57;;;;;;;3.95;2.28;;;;;;;18.95;72.49;100877.25;4870483;29;20053;-78
2022/08/03 11:13:29;;;;;;;4.63;2.17;;;;;;;18.92;72.74;100872.88;4895024;29;20052;-78
2022/08/03 11:16:01;;;;;;;5.35;2.45;;;;;;;18.90;72.99;100874.63;4887771;29;20058;-79
2022/08/03 11:18:29;;;;;;;6.32;2.50;;;;;;;18.88;72.61;100880.75;4898289;29;20057;-79
2022/08/03 11:20:59;;;;;;;3.53;2.03;;;;;;;18.86;72.75;100878.13;4887488;29;20602;-79
2022/08/03 11:23:49;;;;;;;5.43;2.13;;;;;;;18.84;72.52;100874.63;4887734;29;20053;-79
2022/08/03 11:26:21;;;;;;;4.60;1.98;;;;;;;18.82;72.93;100872.00;4892076;29;20131;-77
2022/08/03 11:28:50;;;;;;;4.00;2.45;;;;;;;18.77;73.91;100871.16;4894302;29;20059;-77
2022/08/03 11:31:56;;;;;;;4.22;2.33;;;;;;;18.69;75.31;100872.00;4892148;29;20538;-78
2022/08/03 11:34:26;;;;;;;5.45;2.35;;;;;;;18.57;75.39;100865.06;4888958;29;20546;-78
2022/08/03 11:37:21;;;;;;;3.75;2.20;;;;;;;18.55;75.92;100867.66;4890188;29;20068;-78
2022/08/03 11:39:53;;;;;;;6.85;2.47;;;;;;;18.53;75.56;100869.44;4892413;29;20052;-77
2022/08/03 11:42:47;;;;;;;3.75;2.22;;;;;;;18.53;75.34;100879.03;4899766;29;20049;-77
2022/08/03 11:45:18;;;;;;;5.13;2.50;;;;;;;18.50;74.86;100877.28;4892869;29;20148;-79
2022/08/03 11:47:47;;;;;;;6.20;2.63;;;;;;;18.48;75.16;100871.16;4895209;29;20052;-78
2022/08/03 11:50:17;;;;;;;3.33;1.98;;;;;;;18.45;75.36;100873.81;4887199;29;20128;-78
2022/08/03 11:52:46;;;;;;;5.40;2.75;;;;;;;18.42;75.08;100876.44;4891908;29;20089;-78
2022/08/03 11:55:19;;;;;;;3.50;2.13;;;;;;;18.32;75.74;100875.56;4887173;29;20057;-78